Time;durP1;ratioP1;P1;durP2;ratioP2;P2;SDS_P1;SDS_P2;PMS_P1;PMS_P2;Temp;Humidity;BMP_temperature;BMP_pressure;BME280_temperature;BME280_humidity;BME280_pressure;Samples;Min_cycle;Max_cycle;Signal;HPM_P1;HPM_P2
2023/10/22 00:01:28;;;;;;;1.37;0.80;;;;;;;14.59;nan;98549.69;4902584;29;20229;-76
2023/10/22 00:03:53;;;;;;;2.83;1.17;;;;;;;14.65;nan;98548.28;4905538;29;20202;-76
2023/10/22 00:06:19;;;;;;;1.30;0.90;;;;;;;14.69;nan;98555.75;4906142;29;20564;-76
2023/10/22 00:08:44;;;;;;;2.63;1.00;;;;;;;14.71;nan;98558.25;4906846;29;20202;-78
2023/10/22 00:11:10;;;;;;;2.40;0.90;;;;;;;14.73;nan;98557.09;4904400;29;20293;-78
2023/10/22 00:13:35;;;;;;;8.37;1.20;;;;;;;14.73;nan;98558.94;4906534;29;20237;-78
2023/10/22 00:16:01;;;;;;;3.20;0.83;;;;;;;14.73;nan;98566.84;4899302;29;20273;-78
2023/10/22 00:18:26;;;;;;;0.90;0.80;;;;;;;14.73;nan;98558.94;4902215;29;20210;-78
2023/10/22 00:20:52;;;;;;;1.70;0.83;;;;;;;14.73;nan;98554.47;4903708;29;20868;-78
2023/10/22 00:23:17;;;;;;;1.67;0.90;;;;;;;14.73;nan;98567.69;4902518;29;20461;-78
2023/10/22 00:25:42;;;;;;;3.90;1.10;;;;;;;14.74;nan;98566.72;4901079;29;20201;-78
2023/10/22 00:28:08;;;;;;;2.93;1.77;;;;;;;14.73;nan;98561.56;4902386;29;21167;-78
2023/10/22 00:30:34;;;;;;;1.17;1.00;;;;;;;14.73;nan;98567.69;4877409;29;20634;-78
2023/10/22 00:32:59;;;;;;;1.58;1.00;;;;;;;14.72;nan;98562.56;4875957;29;20202;-78
2023/10/22 00:35:25;;;;;;;1.73;1.00;;;;;;;14.69;nan;98576.91;4895461;29;20198;-78
2023/10/22 00:37:50;;;;;;;1.47;1.37;;;;;;;14.68;nan;98577.88;4894403;29;20210;-78
2023/10/22 00:40:16;;;;;;;3.00;1.00;;;;;;;14.68;nan;98580.50;4885698;29;20222;-78
2023/10/22 00:42:42;;;;;;;1.25;0.80;;;;;;;14.67;nan;98578.84;4897779;29;20198;-76
2023/10/22 00:45:07;;;;;;;1.00;0.60;;;;;;;14.67;nan;98592.06;4893138;29;20202;-76
2023/10/22 00:47:34;;;;;;;1.47;1.10;;;;;;;14.66;nan;98586.94;4898293;29;20202;-76
2023/10/22 00:50:01;;;;;;;1.45;0.80;;;;;;;14.66;nan;98587.75;4894353;29;20220;-78
2023/10/22 00:52:27;;;;;;;2.88;1.00;;;;;;;14.66;nan;98590.38;4896521;29;20199;-79
2023/10/22 00:54:54;;;;;;;1.83;1.10;;;;;;;14.66;nan;98593.03;4874007;29;21021;-78
2023/10/22 00:57:22;;;;;;;2.08;0.93;;;;;;;14.68;nan;98601.66;4893287;29;20223;-78
2023/10/22 00:59:51;;;;;;;1.13;0.80;;;;;;;14.70;nan;98591.78;4894998;29;20879;-79
2023/10/22 01:02:17;;;;;;;1.55;1.05;;;;;;;14.72;nan;98603.03;4894855;29;20265;-78
2023/10/22 01:04:43;;;;;;;1.80;0.88;;;;;;;14.73;nan;98609.16;4881202;29;20784;-76
2023/10/22 01:07:10;;;;;;;0.90;0.80;;;;;;;14.72;nan;98603.03;4866024;29;20193;-77
2023/10/22 01:09:35;;;;;;;1.60;0.80;;;;;;;14.71;nan;98611.09;4898369;29;20206;-76
2023/10/22 01:12:03;;;;;;;1.27;0.70;;;;;;;14.70;nan;98607.63;4901458;29;20222;-76
2023/10/22 01:14:29;;;;;;;3.00;0.90;;;;;;;14.68;nan;98606.94;4899337;29;20206;-76
2023/10/22 01:16:54;;;;;;;2.30;1.10;;;;;;;14.66;nan;98606.25;4903928;29;20815;-76
2023/10/22 01:19:20;;;;;;;3.50;1.20;;;;;;;14.64;nan;98605.59;4880921;29;21092;-76
2023/10/22 01:21:45;;;;;;;1.20;0.90;;;;;;;14.62;nan;98607.53;4901387;29;20210;-76
2023/10/22 01:24:10;;;;;;;1.07;0.97;;;;;;;14.63;nan;98618.94;4897788;29;20197;-77
2023/10/22 01:26:40;;;;;;;1.23;0.87;;;;;;;14.63;nan;98617.13;4898282;29;20203;-75
2023/10/22 01:29:06;;;;;;;2.70;0.98;;;;;;;14.62;nan;98615.47;4903814;29;20203;-76
2023/10/22 01:31:31;;;;;;;2.00;1.13;;;;;;;14.63;nan;98609.19;4899656;29;20724;-77
2023/10/22 01:33:57;;;;;;;1.10;0.80;;;;;;;14.63;nan;98611.84;4898253;29;20202;-77
2023/10/22 01:36:22;;;;;;;4.07;1.10;;;;;;;14.65;nan;98617.00;4903146;29;20445;-78
2023/10/22 01:38:47;;;;;;;3.90;1.50;;;;;;;14.66;nan;98622.09;4898635;29;20218;-76
2023/10/22 01:41:13;;;;;;;1.50;0.70;;;;;;;14.65;nan;98628.38;4886431;29;20523;-77
2023/10/22 01:43:38;;;;;;;0.80;0.70;;;;;;;14.65;nan;98628.38;4905235;29;21136;-77
2023/10/22 01:46:04;;;;;;;2.10;0.90;;;;;;;14.65;nan;98630.19;4897140;29;20331;-77
2023/10/22 01:48:29;;;;;;;0.97;0.70;;;;;;;14.63;nan;98640.91;4883067;29;20661;-77
2023/10/22 01:50:54;;;;;;;0.80;0.80;;;;;;;14.61;nan;98632.31;4901740;29;20345;-77
2023/10/22 01:53:20;;;;;;;1.17;0.70;;;;;;;14.58;nan;98633.44;4900641;29;20902;-77
2023/10/22 01:55:45;;;;;;;1.93;0.90;;;;;;;14.58;nan;98648.44;4898212;29;20199;-77
2023/10/22 01:58:10;;;;;;;0.90;0.80;;;;;;;14.55;nan;98638.16;4871154;29;20214;-76
2023/10/22 02:00:36;;;;;;;1.27;0.70;;;;;;;14.52;nan;98627.88;4877027;29;20214;-77
2023/10/22 02:03:01;;;;;;;1.43;0.70;;;;;;;14.49;nan;98633.44;4887053;29;20202;-76
2023/10/22 02:05:32;;;;;;;1.03;0.80;;;;;;;14.43;nan;98640.16;4872369;29;20750;-77
2023/10/22 02:07:59;;;;;;;1.35;0.88;;;;;;;14.39;nan;98641.41;4884617;29;20262;-77
2023/10/22 02:10:25;;;;;;;2.10;0.87;;;;;;;14.34;nan;98641.88;4884900;29;20817;-77
2023/10/22 02:12:50;;;;;;;1.93;0.90;;;;;;;14.30;nan;98656.31;4872981;29;20552;-77
2023/10/22 02:15:16;;;;;;;2.40;1.10;;;;;;;14.26;nan;98652.31;4868938;29;20209;-77
2023/10/22 02:17:42;;;;;;;1.33;0.70;;;;;;;14.25;nan;98644.53;4866463;29;20214;-77
2023/10/22 02:20:11;;;;;;;1.43;0.90;;;;;;;14.24;nan;98648.16;4873192;29;20209;-77
2023/10/22 02:22:37;;;;;;;1.42;1.05;;;;;;;14.20;nan;98649.41;4887645;29;20228;-77
2023/10/22 02:25:04;;;;;;;1.00;0.90;;;;;;;14.19;nan;98658.31;4865446;29;21088;-76
2023/10/22 02:27:31;;;;;;;1.63;0.80;;;;;;;14.15;nan;98663.88;4867581;29;20634;-77
2023/10/22 02:29:57;;;;;;;3.28;0.80;;;;;;;14.15;nan;98668.34;4887570;29;20222;-76
2023/10/22 02:32:23;;;;;;;1.30;0.60;;;;;;;14.14;nan;98674.59;4887383;29;20752;-76
2023/10/22 02:34:49;;;;;;;2.13;0.70;;;;;;;14.15;nan;98663.88;4864276;29;20705;-76
2023/10/22 02:37:15;;;;;;;0.88;0.77;;;;;;;14.11;nan;98667.78;4883723;29;22798;-77
2023/10/22 02:39:40;;;;;;;3.60;0.83;;;;;;;14.12;nan;98665.97;4888596;29;20246;-76
2023/10/22 02:42:06;;;;;;;1.20;1.00;;;;;;;14.07;nan;98669.06;4885671;29;20206;-76
2023/10/22 02:44:31;;;;;;;4.23;1.30;;;;;;;14.03;nan;98675.59;4888600;29;20359;-76
2023/10/22 02:46:59;;;;;;;1.43;0.80;;;;;;;14.01;nan;98669.59;4889333;29;20305;-76
2023/10/22 02:49:24;;;;;;;1.75;0.80;;;;;;;13.96;nan;98669.22;4867469;29;20749;-76
2023/10/22 02:51:50;;;;;;;6.00;1.00;;;;;;;13.92;nan;98671.28;4885083;29;20206;-76
2023/10/22 02:54:15;;;;;;;4.33;1.30;;;;;;;13.86;nan;98679.78;4889833;29;20206;-76
2023/10/22 02:56:42;;;;;;;1.00;0.90;;;;;;;13.83;nan;98687.16;4888920;29;20684;-78
2023/10/22 02:59:08;;;;;;;1.00;0.90;;;;;;;13.76;nan;98681.59;4893299;29;20258;-81
2023/10/22 03:01:33;;;;;;;1.77;0.85;;;;;;;13.72;nan;98685.50;4891133;29;20298;-77
2023/10/22 03:03:59;;;;;;;1.27;0.90;;;;;;;13.69;nan;98689.25;4874432;29;20202;-75
2023/10/22 03:06:25;;;;;;;2.47;1.07;;;;;;;13.69;nan;98693.69;4899718;29;20198;-77
2023/10/22 03:08:50;;;;;;;2.10;0.93;;;;;;;13.69;nan;98704.22;4904615;29;20220;-76
2023/10/22 03:11:17;;;;;;;2.13;0.90;;;;;;;13.68;nan;98702.59;4900583;29;20220;-80
2023/10/22 03:13:43;;;;;;;1.00;0.90;;;;;;;13.68;nan;98705.22;4905728;29;20198;-78
2023/10/22 03:16:14;;;;;;;2.50;1.30;;;;;;;13.66;nan;98709.81;4900454;29;20201;-78
2023/10/22 03:18:40;;;;;;;2.58;1.05;;;;;;;13.65;nan;98714.25;4905911;29;20221;-79
2023/10/22 03:21:11;;;;;;;1.20;0.80;;;;;;;13.62;nan;98714.53;4904203;29;20901;-77
2023/10/22 03:23:40;;;;;;;2.13;1.10;;;;;;;13.61;nan;98722.56;4899414;29;21247;-78
2023/10/22 03:26:06;;;;;;;2.83;0.90;;;;;;;13.58;nan;98718.41;4901569;29;20198;-77
2023/10/22 03:28:31;;;;;;;0.90;0.60;;;;;;;13.56;nan;98717.72;4902914;29;20230;-80
2023/10/22 03:30:58;;;;;;;1.57;0.80;;;;;;;13.53;nan;98720.66;4904978;29;20297;-78
2023/10/22 03:33:24;;;;;;;1.20;0.85;;;;;;;13.49;nan;98727.97;4905043;29;20206;-78
2023/10/22 03:35:50;;;;;;;2.47;0.80;;;;;;;13.45;nan;98718.69;4887057;29;20478;-78
2023/10/22 03:38:15;;;;;;;1.47;0.80;;;;;;;13.43;nan;98733.00;4906367;29;20215;-78
2023/10/22 03:40:41;;;;;;;1.20;0.70;;;;;;;13.39;nan;98723.66;4903709;29;20265;-80
2023/10/22 03:43:07;;;;;;;2.63;0.70;;;;;;;13.36;nan;98730.06;4903629;29;20198;-78
2023/10/22 03:45:36;;;;;;;0.98;0.82;;;;;;;13.35;nan;98727.56;4901727;29;20289;-79
2023/10/22 03:48:01;;;;;;;1.20;0.80;;;;;;;13.32;nan;98739.22;4900320;29;20310;-78
2023/10/22 03:50:26;;;;;;;2.53;1.23;;;;;;;13.30;nan;98742.97;4904167;29;20281;-78
2023/10/22 03:52:52;;;;;;;3.13;1.13;;;;;;;13.27;nan;98744.06;4902132;29;20198;-81
2023/10/22 03:55:18;;;;;;;1.83;0.80;;;;;;;13.23;nan;98740.00;4905450;29;20190;-78
2023/10/22 03:57:43;;;;;;;2.60;1.30;;;;;;;13.22;nan;98747.06;4900209;29;20272;-80
2023/10/22 04:00:10;;;;;;;1.43;1.33;;;;;;;13.21;nan;98742.78;4901819;29;20780;-78
2023/10/22 04:02:38;;;;;;;1.67;1.08;;;;;;;13.22;nan;98746.25;4901736;29;20246;-77
2023/10/22 04:05:05;;;;;;;1.20;0.90;;;;;;;13.23;nan;98751.41;4903822;29;20350;-81
2023/10/22 04:07:31;;;;;;;1.10;1.00;;;;;;;13.30;nan;98746.44;4900555;29;20441;-78
2023/10/22 04:09:56;;;;;;;2.80;1.63;;;;;;;13.33;nan;98754.06;4903101;29;20203;-78
2023/10/22 04:12:22;;;;;;;0.93;0.87;;;;;;;13.34;nan;98758.38;4906070;29;20206;-78
2023/10/22 04:14:47;;;;;;;1.53;0.90;;;;;;;13.35;nan;98754.78;4901768;29;20202;-78
2023/10/22 04:17:14;;;;;;;3.53;1.08;;;;;;;13.36;nan;98756.44;4904315;29;20237;-81
2023/10/22 04:19:39;;;;;;;2.60;1.10;;;;;;;13.35;nan;98754.78;4902507;29;20270;-77
2023/10/22 04:22:04;;;;;;;4.80;1.07;;;;;;;13.34;nan;98755.75;4902837;29;20195;-81
2023/10/22 04:24:30;;;;;;;2.87;1.13;;;;;;;13.33;nan;98767.25;4904188;29;20265;-83
2023/10/22 04:26:55;;;;;;;1.43;0.83;;;;;;;13.31;nan;98758.63;4904379;29;20187;-78
2023/10/22 04:29:21;;;;;;;1.77;0.80;;;;;;;13.29;nan;98765.88;4900984;29;20266;-78
2023/10/22 04:31:50;;;;;;;2.40;1.20;;;;;;;13.26;nan;98768.78;4898873;29;20218;-78
2023/10/22 04:34:15;;;;;;;0.70;0.63;;;;;;;13.23;nan;98774.28;4904502;29;20451;-79
2023/10/22 04:36:40;;;;;;;2.90;0.90;;;;;;;13.22;nan;98772.63;4901112;29;20783;-78
2023/10/22 04:39:06;;;;;;;1.80;0.90;;;;;;;13.19;nan;98771.06;4901493;29;20202;-80
2023/10/22 04:41:31;;;;;;;10.67;1.60;;;;;;;13.16;nan;98781.91;4902331;29;20206;-78
2023/10/22 04:43:57;;;;;;;3.70;1.00;;;;;;;13.14;nan;98778.56;4898129;29;20206;-80
2023/10/22 04:46:22;;;;;;;1.23;0.90;;;;;;;13.14;nan;98785.63;4898996;29;20195;-78
2023/10/22 04:48:47;;;;;;;1.33;0.80;;;;;;;13.11;nan;98783.28;4896743;29;20697;-79
2023/10/22 04:51:13;;;;;;;0.73;0.67;;;;;;;13.09;nan;98779.94;4897572;29;20237;-79
2023/10/22 04:53:38;;;;;;;1.50;0.90;;;;;;;13.04;nan;98794.38;4898104;29;20214;-78
2023/10/22 04:56:04;;;;;;;2.00;0.90;;;;;;;13.02;nan;98791.00;4895663;29;20740;-81
2023/10/22 04:58:32;;;;;;;1.17;0.88;;;;;;;13.00;nan;98792.13;4896646;29;20218;-78
2023/10/22 05:00:58;;;;;;;1.40;0.75;;;;;;;12.97;nan;98787.13;4898495;29;20671;-78
2023/10/22 05:03:23;;;;;;;1.70;0.90;;;;;;;12.94;nan;98782.13;4902312;29;20209;-78
2023/10/22 05:05:48;;;;;;;3.63;1.02;;;;;;;12.90;nan;98789.44;4901390;29;20459;-78
2023/10/22 05:08:14;;;;;;;1.73;0.77;;;;;;;12.87;nan;98792.34;4901257;29;20210;-80
2023/10/22 05:10:40;;;;;;;0.80;0.67;;;;;;;12.87;nan;98792.34;4900975;29;20222;-78
2023/10/22 05:13:08;;;;;;;3.77;1.20;;;;;;;12.83;nan;98785.66;4903617;29;20285;-80
2023/10/22 05:15:33;;;;;;;1.67;1.00;;;;;;;12.80;nan;98784.13;4900369;29;20215;-77
2023/10/22 05:17:59;;;;;;;1.03;0.93;;;;;;;12.80;nan;98796.47;4903753;29;20222;-77
2023/10/22 05:20:28;;;;;;;3.60;1.20;;;;;;;12.76;nan;98790.63;4900998;29;20302;-77
2023/10/22 05:22:54;;;;;;;2.05;1.00;;;;;;;12.76;nan;98795.06;4900751;29;20233;-79
2023/10/22 05:25:20;;;;;;;1.40;0.80;;;;;;;12.74;nan;98799.63;4901725;29;20756;-77
2023/10/22 05:27:46;;;;;;;1.00;0.80;;;;;;;12.72;nan;98794.50;4901342;29;20195;-79
2023/10/22 05:30:12;;;;;;;1.13;0.90;;;;;;;12.71;nan;98803.34;4902370;29;20240;-77
2023/10/22 05:32:37;;;;;;;1.00;0.80;;;;;;;12.70;nan;98812.22;4897279;29;20599;-80
2023/10/22 05:35:03;;;;;;;2.10;1.00;;;;;;;12.70;nan;98808.75;4903126;29;20206;-78
2023/10/22 05:37:29;;;;;;;1.25;1.00;;;;;;;12.69;nan;98810.56;4898681;29;20222;-78
2023/10/22 05:39:56;;;;;;;3.27;1.23;;;;;;;12.68;nan;98814.16;4901787;29;20206;-78
2023/10/22 05:42:21;;;;;;;2.25;1.35;;;;;;;12.66;nan;98815.25;4901392;29;20697;-79
2023/10/22 05:44:47;;;;;;;2.00;1.03;;;;;;;12.65;nan;98814.41;4899393;29;20229;-80
2023/10/22 05:47:12;;;;;;;2.83;1.00;;;;;;;12.63;nan;98822.44;4900651;29;20198;-77
2023/10/22 05:49:37;;;;;;;1.57;1.10;;;;;;;12.65;nan;98832.03;4901186;29;20365;-80
2023/10/22 05:52:03;;;;;;;6.23;1.17;;;;;;;12.62;nan;98836.59;4901806;29;20219;-78
2023/10/22 05:54:29;;;;;;;1.73;0.97;;;;;;;12.63;nan;98840.06;4899649;29;20194;-78
2023/10/22 05:56:54;;;;;;;1.47;0.80;;;;;;;12.62;nan;98841.03;4900189;29;20205;-78
2023/10/22 05:59:20;;;;;;;1.67;1.30;;;;;;;12.62;nan;98847.13;4900593;29;20236;-79
2023/10/22 06:01:45;;;;;;;5.17;1.47;;;;;;;12.63;nan;98847.97;4901349;29;20210;-78
2023/10/22 06:04:11;;;;;;;3.53;1.33;;;;;;;12.65;nan;98845.22;4898571;29;20222;-78
2023/10/22 06:06:39;;;;;;;1.50;1.13;;;;;;;12.66;nan;98852.13;4896052;29;20202;-80
2023/10/22 06:09:05;;;;;;;3.75;1.00;;;;;;;12.65;nan;98861.00;4895769;29;20622;-78
2023/10/22 06:11:31;;;;;;;2.23;0.90;;;;;;;12.66;nan;98860.88;4893467;29;20221;-78
2023/10/22 06:13:56;;;;;;;1.90;0.87;;;;;;;12.66;nan;98858.22;4892990;29;20214;-79
2023/10/22 06:16:23;;;;;;;2.03;0.80;;;;;;;12.66;nan;98862.66;4893628;29;20221;-81
2023/10/22 06:18:48;;;;;;;4.07;1.35;;;;;;;12.66;nan;98866.13;4893411;29;20771;-81
2023/10/22 06:21:15;;;;;;;1.63;0.80;;;;;;;12.66;nan;98863.50;4892806;29;20226;-78
2023/10/22 06:23:41;;;;;;;1.90;0.90;;;;;;;12.66;nan;98866.13;4895943;29;20957;-81
2023/10/22 06:26:11;;;;;;;1.35;0.90;;;;;;;12.66;nan;98879.31;4893745;29;20225;-80
2023/10/22 06:28:37;;;;;;;2.55;0.90;;;;;;;12.67;nan;98877.53;4901812;29;20543;-78
2023/10/22 06:31:07;;;;;;;2.50;1.10;;;;;;;12.66;nan;98876.69;4897553;29;20265;-79
2023/10/22 06:33:34;;;;;;;2.17;0.80;;;;;;;12.67;nan;98880.19;4894711;29;20203;-82
2023/10/22 06:36:10;;;;;;;3.80;1.30;;;;;;;12.68;nan;98881.84;4896652;29;20186;-78
2023/10/22 06:38:35;;;;;;;1.38;1.25;;;;;;;12.69;nan;98886.13;4892374;29;20516;-78
2023/10/22 06:41:00;;;;;;;1.80;1.13;;;;;;;12.70;nan;98885.19;4893718;29;20224;-78
2023/10/22 06:43:26;;;;;;;2.17;1.10;;;;;;;12.71;nan;98890.31;4893399;29;20225;-81
2023/10/22 06:45:51;;;;;;;2.57;1.00;;;;;;;12.73;nan;98890.19;4895324;29;20301;-78
2023/10/22 06:48:17;;;;;;;1.57;1.00;;;;;;;12.77;nan;98894.22;4897657;29;20821;-81
2023/10/22 06:50:42;;;;;;;1.37;1.17;;;;;;;12.80;nan;98894.81;4904346;29;20228;-78
2023/10/22 06:53:08;;;;;;;1.30;1.13;;;;;;;12.85;nan;98897.03;4902384;29;20290;-78
2023/10/22 06:55:33;;;;;;;1.07;0.90;;;;;;;12.90;nan;98905.41;4903176;29;20281;-78
2023/10/22 06:57:58;;;;;;;2.90;1.30;;;;;;;12.96;nan;98902.28;4898723;29;20210;-78
2023/10/22 07:00:24;;;;;;;1.77;0.90;;;;;;;13.04;nan;98907.72;4902418;29;20214;-78
2023/10/22 07:02:50;;;;;;;2.00;0.90;;;;;;;13.12;nan;98903.59;4904897;29;20236;-84
2023/10/22 07:05:15;;;;;;;1.77;1.10;;;;;;;13.20;nan;98909.03;4904032;29;20210;-81
2023/10/22 07:07:43;;;;;;;2.07;1.03;;;;;;;13.27;nan;98911.06;4900420;29;20199;-81
2023/10/22 07:10:10;;;;;;;1.15;0.88;;;;;;;13.35;nan;98913.03;4902669;29;20664;-78
2023/10/22 07:12:35;;;;;;;1.13;0.80;;;;;;;13.41;nan;98917.78;4903944;29;20215;-77
2023/10/22 07:15:01;;;;;;;1.40;1.10;;;;;;;13.48;nan;98918.91;4903241;29;20277;-78
2023/10/22 07:17:26;;;;;;;1.67;0.80;;;;;;;13.54;nan;98929.91;4902277;29;20334;-82
2023/10/22 07:19:52;;;;;;;2.70;0.73;;;;;;;13.63;nan;98932.56;4902317;29;20306;-77
2023/10/22 07:22:17;;;;;;;2.40;1.33;;;;;;;13.69;nan;98931.19;4903629;29;20198;-82
2023/10/22 07:24:42;;;;;;;2.73;1.43;;;;;;;13.73;nan;98932.63;4905903;29;20218;-78
2023/10/22 07:27:08;;;;;;;3.00;1.13;;;;;;;13.78;nan;98940.97;4905157;29;20198;-79
2023/10/22 07:29:33;;;;;;;2.07;1.10;;;;;;;13.82;nan;98945.00;4906151;29;20308;-78
2023/10/22 07:31:58;;;;;;;2.07;1.03;;;;;;;13.91;nan;98946.84;4906082;29;20210;-80
2023/10/22 07:34:24;;;;;;;2.30;1.10;;;;;;;13.97;nan;98942.00;4906451;29;20202;-79
2023/10/22 07:36:49;;;;;;;2.10;1.00;;;;;;;14.05;nan;98944.78;4902542;29;20442;-78
2023/10/22 07:39:14;;;;;;;0.90;0.80;;;;;;;14.10;nan;98939.94;4908784;29;20458;-81
2023/10/22 07:41:40;;;;;;;6.57;1.13;;;;;;;14.15;nan;98946.47;4905985;29;20670;-80
2023/10/22 07:44:05;;;;;;;1.93;1.17;;;;;;;14.22;nan;98946.75;4905320;29;20292;-81
2023/10/22 07:46:30;;;;;;;2.10;1.20;;;;;;;14.30;nan;98956.63;4905736;29;20194;-78
2023/10/22 07:48:56;;;;;;;1.90;0.87;;;;;;;14.37;nan;98958.59;4906879;29;20207;-79
2023/10/22 07:51:24;;;;;;;6.10;1.00;;;;;;;14.45;nan;98957.91;4904738;29;20302;-78
2023/10/22 07:53:49;;;;;;;3.88;1.05;;;;;;;14.50;nan;98960.97;4902304;29;20203;-77
2023/10/22 07:56:18;;;;;;;1.00;0.77;;;;;;;14.56;nan;98957.81;4901577;29;20255;-82
2023/10/22 07:58:43;;;;;;;4.50;0.98;;;;;;;14.64;nan;98957.13;4903280;29;21242;-80
2023/10/22 08:01:08;;;;;;;1.87;0.97;;;;;;;14.70;nan;98961.84;4905058;29;20287;-79
2023/10/22 08:03:34;;;;;;;1.30;0.80;;;;;;;14.76;nan;98963.91;4906240;29;20293;-78
2023/10/22 08:06:02;;;;;;;1.90;0.83;;;;;;;14.84;nan;98960.56;4902325;29;20450;-79
2023/10/22 08:08:27;;;;;;;1.10;0.90;;;;;;;14.91;nan;98966.16;4901297;29;20446;-82
2023/10/22 08:11:00;;;;;;;1.17;0.87;;;;;;;14.96;nan;98971.81;4901697;29;20206;-77
2023/10/22 08:13:27;;;;;;;1.02;0.93;;;;;;;15.02;nan;98968.63;4909116;29;20289;-78
2023/10/22 08:15:53;;;;;;;1.63;1.17;;;;;;;15.31;nan;98965.94;4904393;29;20601;-78
2023/10/22 08:18:21;;;;;;;2.20;1.10;;;;;;;16.19;nan;98970.88;4907303;29;20641;-79
2023/10/22 08:20:46;;;;;;;1.60;1.00;;;;;;;17.23;nan;98964.03;4904208;29;20701;-80
2023/10/22 08:23:11;;;;;;;2.97;0.90;;;;;;;18.25;nan;98954.34;4907560;29;20205;-81
2023/10/22 08:25:50;;;;;;;4.70;1.00;;;;;;;19.20;nan;98946.78;4904513;29;20198;-78
2023/10/22 08:28:15;;;;;;;3.57;1.10;;;;;;;19.94;nan;98945.75;4901255;29;20272;-76
2023/10/22 08:30:46;;;;;;;2.50;1.07;;;;;;;20.57;nan;98952.72;4893129;29;21295;-77
2023/10/22 08:33:12;;;;;;;2.40;1.20;;;;;;;21.14;nan;98941.59;4896292;29;21282;-76
2023/10/22 08:35:38;;;;;;;2.10;1.00;;;;;;;21.68;nan;98943.19;4899283;29;20461;-77
2023/10/22 08:38:03;;;;;;;0.80;0.80;;;;;;;21.95;nan;98946.22;4899700;29;20546;-76
2023/10/22 08:40:29;;;;;;;2.53;1.20;;;;;;;22.18;nan;98944.25;4897113;29;20229;-77
2023/10/22 08:43:03;;;;;;;2.83;0.70;;;;;;;22.34;nan;98955.75;4899447;29;20209;-76
2023/10/22 08:45:28;;;;;;;1.27;0.70;;;;;;;22.23;nan;98949.88;4902236;29;20303;-77
2023/10/22 08:47:54;;;;;;;2.00;1.00;;;;;;;22.27;nan;98944.97;4899043;29;20462;-77
2023/10/22 08:50:20;;;;;;;1.87;0.80;;;;;;;22.36;nan;98957.22;4902323;29;20301;-82
2023/10/22 08:52:45;;;;;;;1.60;0.70;;;;;;;22.52;nan;98948.09;4904462;29;20544;-81
2023/10/22 08:55:11;;;;;;;1.90;0.90;;;;;;;22.83;nan;98944.28;4903783;29;20290;-81
2023/10/22 08:57:36;;;;;;;1.67;1.00;;;;;;;22.96;nan;98949.78;4905339;29;20304;-79
2023/10/22 09:00:09;;;;;;;3.67;1.30;;;;;;;22.91;nan;98946.81;4902352;29;20202;-82
2023/10/22 09:02:35;;;;;;;0.90;0.70;;;;;;;22.90;nan;98958.53;4905295;29;20582;-82
2023/10/22 09:05:00;;;;;;;5.70;1.60;;;;;;;22.99;nan;98952.06;4900809;29;21481;-79
2023/10/22 09:07:51;;;;;;;2.10;1.03;;;;;;;23.09;nan;98949.91;4900893;29;20450;-80
2023/10/22 09:10:29;;;;;;;2.40;1.13;;;;;;;23.04;nan;98948.81;4903222;29;20239;-79
2023/10/22 09:13:25;;;;;;;2.70;0.80;;;;;;;22.85;nan;98964.50;4903921;29;20476;-79
2023/10/22 09:15:52;;;;;;;2.37;1.00;;;;;;;22.77;nan;98953.91;4900946;29;20460;-80
2023/10/22 09:18:18;;;;;;;2.17;1.00;;;;;;;22.61;nan;98951.50;4903338;29;20486;-79
2023/10/22 09:20:44;;;;;;;2.20;1.30;;;;;;;22.34;nan;98955.75;4902284;29;20564;-82
2023/10/22 09:23:14;;;;;;;1.77;0.80;;;;;;;21.94;nan;98964.09;4907213;29;20882;-79
2023/10/22 09:25:44;;;;;;;6.73;1.10;;;;;;;21.59;nan;98973.72;4898516;29;20489;-79
2023/10/22 09:28:26;;;;;;;2.40;0.93;;;;;;;21.02;nan;98971.56;4900762;29;20483;-79
2023/10/22 09:30:57;;;;;;;1.20;1.00;;;;;;;20.63;nan;98964.53;4903989;29;20502;-79
2023/10/22 09:33:39;;;;;;;1.87;1.10;;;;;;;20.32;nan;98962.72;4904756;29;20975;-80
2023/10/22 09:36:08;;;;;;;1.10;0.70;;;;;;;19.97;nan;98972.88;4903775;29;20464;-82
2023/10/22 09:38:47;;;;;;;2.53;1.03;;;;;;;19.73;nan;98971.16;4905779;29;20486;-82
2023/10/22 09:41:23;;;;;;;1.53;1.00;;;;;;;19.53;nan;98976.00;4903102;29;20469;-79
2023/10/22 09:43:50;;;;;;;1.40;1.10;;;;;;;19.21;nan;98979.56;4903360;29;20567;-78
2023/10/22 09:46:18;;;;;;;1.10;0.90;;;;;;;19.06;nan;98979.41;4901460;29;21225;-80
2023/10/22 09:48:46;;;;;;;2.13;0.90;;;;;;;18.98;nan;98980.25;4905277;29;20466;-80
2023/10/22 09:51:14;;;;;;;4.63;2.73;;;;;;;18.91;nan;98981.09;4902568;29;21130;-80
2023/10/22 09:53:44;;;;;;;5.03;1.10;;;;;;;18.86;nan;98981.56;4899971;29;20509;-84
2023/10/22 09:56:11;;;;;;;2.33;1.20;;;;;;;18.82;nan;98979.41;4900146;29;20542;-85
2023/10/22 09:58:43;;;;;;;4.03;1.17;;;;;;;18.84;nan;98972.09;4901408;29;20558;-79
2023/10/22 10:01:13;;;;;;;5.97;1.13;;;;;;;18.83;nan;98973.94;4902940;29;20470;-78
2023/10/22 10:03:40;;;;;;;2.90;1.10;;;;;;;18.85;nan;98984.38;4902482;29;22777;-78
2023/10/22 10:06:09;;;;;;;2.20;1.10;;;;;;;18.93;nan;98982.59;4903123;29;21020;-79
2023/10/22 10:08:37;;;;;;;1.37;1.07;;;;;;;19.03;nan;98979.72;4901039;29;20455;-82
2023/10/22 10:11:06;;;;;;;2.20;1.00;;;;;;;19.07;nan;98980.25;4903732;29;20466;-78
2023/10/22 10:13:32;;;;;;;4.00;1.77;;;;;;;19.08;nan;98980.06;4897046;29;20502;-77
2023/10/22 10:16:05;;;;;;;3.03;1.40;;;;;;;19.04;nan;98988.53;4897064;29;20462;-77
2023/10/22 10:18:58;;;;;;;2.83;1.10;;;;;;;18.95;nan;98987.72;4899792;29;20203;-76
2023/10/22 10:21:48;;;;;;;1.20;1.00;;;;;;;18.89;nan;98993.72;4902381;29;20559;-77
2023/10/22 10:24:24;;;;;;;1.60;0.87;;;;;;;18.88;nan;98997.38;4906648;29;20463;-77
2023/10/22 10:26:51;;;;;;;2.73;1.03;;;;;;;18.81;nan;98986.56;4905185;29;20463;-77
2023/10/22 10:29:19;;;;;;;2.17;1.10;;;;;;;18.81;nan;98985.72;4903082;29;20470;-77
2023/10/22 10:31:47;;;;;;;1.00;0.80;;;;;;;18.85;nan;98985.25;4910240;29;20478;-78
2023/10/22 10:34:32;;;;;;;2.03;0.90;;;;;;;18.92;nan;98983.56;4908700;29;20538;-78
2023/10/22 10:37:18;;;;;;;4.13;1.00;;;;;;;18.92;nan;98982.75;4899988;29;20537;-78
2023/10/22 10:39:53;;;;;;;1.50;0.97;;;;;;;18.88;nan;98974.25;4903769;29;20458;-79
2023/10/22 10:42:33;;;;;;;1.00;0.90;;;;;;;18.87;nan;98995.72;4904077;29;20604;-77
2023/10/22 10:45:05;;;;;;;1.60;1.17;;;;;;;18.88;nan;98986.75;4890036;29;20513;-77
2023/10/22 10:47:41;;;;;;;2.10;1.10;;;;;;;18.89;nan;98981.25;4902546;29;20521;-78
2023/10/22 10:50:11;;;;;;;1.63;0.90;;;;;;;18.85;nan;98981.72;4898340;29;20447;-77
2023/10/22 10:52:37;;;;;;;2.57;1.00;;;;;;;18.86;nan;98988.72;4900936;29;20653;-78
2023/10/22 10:55:14;;;;;;;1.20;0.90;;;;;;;18.90;nan;98987.38;4900654;29;20656;-78
2023/10/22 10:57:50;;;;;;;3.17;1.00;;;;;;;18.77;nan;98994.06;4905496;29;20218;-75
2023/10/22 11:00:30;;;;;;;4.40;0.90;;;;;;;18.70;nan;98990.34;4902593;29;20520;-75
2023/10/22 11:02:59;;;;;;;1.40;0.70;;;;;;;18.72;nan;98985.69;4906254;29;20537;-76
2023/10/22 11:05:44;;;;;;;3.37;1.30;;;;;;;18.69;nan;98988.69;4903037;29;20964;-76
2023/10/22 11:08:19;;;;;;;1.73;1.10;;;;;;;18.70;nan;98995.66;4900433;29;20445;-76
2023/10/22 11:10:45;;;;;;;1.13;0.80;;;;;;;18.74;nan;98993.50;4903504;29;20525;-76
2023/10/22 11:13:11;;;;;;;3.67;0.80;;;;;;;18.76;nan;98989.72;4887446;29;20497;-76
2023/10/22 11:15:38;;;;;;;1.80;1.00;;;;;;;18.81;nan;98989.22;4899449;29;20506;-76
2023/10/22 11:18:05;;;;;;;5.33;0.80;;;;;;;18.82;nan;98987.38;4899479;29;20453;-77
2023/10/22 11:20:32;;;;;;;3.63;0.90;;;;;;;18.78;nan;98994.88;4900375;29;20893;-77
2023/10/22 11:22:57;;;;;;;1.77;0.90;;;;;;;18.78;nan;98995.69;4904751;29;20549;-77
2023/10/22 11:25:24;;;;;;;1.50;0.90;;;;;;;18.82;nan;98990.03;4899982;29;20812;-76
2023/10/22 11:27:50;;;;;;;1.70;0.93;;;;;;;18.86;nan;98994.88;4904252;29;20525;-77
2023/10/22 11:30:36;;;;;;;2.13;0.90;;;;;;;18.93;nan;98998.56;4896250;29;20486;-77
2023/10/22 11:33:08;;;;;;;1.20;0.90;;;;;;;18.94;nan;98996.72;4902396;29;20202;-77
2023/10/22 11:35:36;;;;;;;2.87;1.47;;;;;;;18.96;nan;99005.38;4904940;29;20455;-76
2023/10/22 11:38:02;;;;;;;1.10;1.00;;;;;;;19.00;nan;99001.38;4903342;29;20478;-77
2023/10/22 11:40:28;;;;;;;3.77;1.03;;;;;;;19.01;nan;99003.88;4899246;29;20861;-77
2023/10/22 11:43:00;;;;;;;1.10;0.93;;;;;;;19.00;nan;99001.38;4902314;29;20916;-77
2023/10/22 11:45:30;;;;;;;1.80;0.80;;;;;;;18.97;nan;99005.19;4901143;29;20486;-77
2023/10/22 11:48:14;;;;;;;1.20;0.93;;;;;;;18.93;nan;99001.22;4901056;29;20455;-77
2023/10/22 11:50:44;;;;;;;2.60;1.10;;;;;;;18.90;nan;99009.53;4897018;29;20720;-78
2023/10/22 11:53:09;;;;;;;1.50;0.80;;;;;;;18.91;nan;98991.72;4894042;29;20469;-77